createdAt,value
2023-02-20T00:02:22.364Z,98521.94
2023-02-20T00:04:50.630Z,98518.44
2023-02-20T00:07:20.287Z,98522.91
2023-02-20T00:09:48.489Z,98528.34
2023-02-20T00:12:16.748Z,98531.81
2023-02-20T00:14:45.013Z,98525.56
2023-02-20T00:17:13.297Z,98541.59
2023-02-20T00:19:41.527Z,98537.38
2023-02-20T00:22:09.747Z,98533.66
2023-02-20T00:24:39.372Z,98527.50
2023-02-20T00:27:07.571Z,98524.09
2023-02-20T00:29:36.861Z,98519.66
2023-02-20T00:32:05.738Z,98522.44
2023-02-20T00:34:34.283Z,98518.81
2023-02-20T00:37:02.658Z,98525.81
2023-02-20T00:39:31.058Z,98528.47
2023-02-20T00:42:00.731Z,98517.25
2023-02-20T00:44:29.004Z,98514.47
2023-02-20T00:46:57.321Z,98504.00
2023-02-20T00:49:25.637Z,98505.66
2023-02-20T00:51:54.304Z,98512.81
2023-02-20T00:54:22.585Z,98514.47
2023-02-20T00:56:50.872Z,98522.44
2023-02-20T00:59:20.434Z,98522.56
2023-02-20T01:01:48.721Z,98519.91
2023-02-20T01:04:16.963Z,98526.06
2023-02-20T01:06:45.153Z,98517.00
2023-02-20T01:09:13.533Z,98515.59
2023-02-20T01:11:44.141Z,98523.41
2023-02-20T01:14:12.659Z,98521.59
2023-02-20T01:16:47.443Z,98513.63
2023-02-20T01:19:16.576Z,98523.53
2023-02-20T01:21:44.877Z,98516.66
2023-02-20T01:24:13.361Z,98514.13
2023-02-20T01:26:42.644Z,98507.88
2023-02-20T01:29:10.878Z,98501.59
2023-02-20T01:31:39.510Z,98503.41
2023-02-20T01:34:09.228Z,98499.94
2023-02-20T01:36:38.125Z,98497.97
2023-02-20T01:39:06.387Z,98500.63
2023-02-20T01:41:34.624Z,98512.06
2023-02-20T01:44:02.900Z,98505.09
2023-02-20T01:46:52.459Z,98505.22
2023-02-20T01:49:33.957Z,98498.94
2023-02-20T01:52:12.465Z,98502.59
2023-02-20T01:54:44.168Z,98501.72
2023-02-20T01:57:19.125Z,98500.88
2023-02-20T01:59:48.900Z,98500.88
2023-02-20T02:02:17.899Z,98495.81
2023-02-20T02:04:50.269Z,98502.84
2023-02-20T02:07:18.824Z,98504.63
2023-02-20T02:09:55.002Z,98518.25
2023-02-20T02:12:23.905Z,98525.97
2023-02-20T02:14:52.283Z,98529.00
2023-02-20T02:17:45.876Z,98515.75
2023-02-20T02:21:02.210Z,98522.97
2023-02-20T02:24:28.982Z,98517.78
2023-02-20T02:27:28.208Z,98504.66
2023-02-20T02:30:39.733Z,98503.22
2023-02-20T02:33:59.955Z,98495.03
2023-02-20T02:37:03.376Z,98482.75
2023-02-20T02:39:40.626Z,98489.72
2023-02-20T02:42:17.406Z,98487.81
2023-02-20T02:44:54.099Z,98485.97
2023-02-20T02:47:29.670Z,98493.22
2023-02-20T02:50:04.457Z,98491.53
2023-02-20T02:52:49.552Z,98486.09
2023-02-20T02:55:22.216Z,98499.47
2023-02-20T02:57:50.460Z,98484.44
2023-02-20T03:00:23.387Z,98482.88
2023-02-20T03:02:59.133Z,98481.19
2023-02-20T03:05:40.377Z,98475.06
2023-02-20T03:08:31.369Z,98472.53
2023-02-20T03:11:05.447Z,98475.19
2023-02-20T03:13:55.938Z,98481.44
2023-02-20T03:16:31.168Z,98482.41
2023-02-20T03:19:03.068Z,98479.03
2023-02-20T03:21:33.563Z,98477.09
2023-02-20T03:24:06.374Z,98472.66
2023-02-20T03:26:37.303Z,98472.66
2023-02-20T03:29:10.392Z,98461.47
2023-02-20T03:31:45.705Z,98471.94
2023-02-20T03:34:35.248Z,98471.94
2023-02-20T03:37:26.195Z,98478.09
2023-02-20T03:40:19.385Z,98486.03
2023-02-20T03:43:10.943Z,98482.66
2023-02-20T03:45:42.705Z,98486.16
2023-02-20T03:48:17.061Z,98471.06
2023-02-20T03:51:02.870Z,98471.81
2023-02-20T03:53:31.738Z,98478.91
2023-02-20T03:56:05.652Z,98490.34
2023-02-20T03:58:38.734Z,98495.53
2023-02-20T04:01:09.404Z,98492.88
2023-02-20T04:03:45.676Z,98506.25
2023-02-20T04:06:16.069Z,98502.63
2023-02-20T04:08:49.534Z,98503.47
2023-02-20T04:11:25.418Z,98518.66
2023-02-20T04:13:56.115Z,98515.06
2023-02-20T04:16:25.188Z,98515.19
2023-02-20T04:18:53.914Z,98519.63
2023-02-20T04:21:28.979Z,98515.31
2023-02-20T04:24:07.530Z,98514.47
2023-02-20T04:26:38.244Z,98505.66
2023-02-20T04:29:07.540Z,98517.09
2023-02-20T04:31:35.927Z,98511.09
2023-02-20T04:34:04.236Z,98510.38
2023-02-20T04:36:32.497Z,98508.69
2023-02-20T04:39:00.713Z,98508.81
2023-02-20T04:41:28.944Z,98507.00
2023-02-20T04:44:12.452Z,98512.56
2023-02-20T04:46:40.690Z,98511.00
2023-02-20T04:49:08.974Z,98518.22
2023-02-20T04:51:37.154Z,98511.13
2023-02-20T04:54:05.627Z,98511.13
2023-02-20T04:56:33.848Z,98514.75
2023-02-20T04:59:03.432Z,98513.91
2023-02-20T05:01:31.747Z,98513.06
2023-02-20T05:03:59.986Z,98515.81
2023-02-20T05:06:28.248Z,98514.97
2023-02-20T05:08:56.817Z,98522.06
2023-02-20T05:11:25.031Z,98513.38
2023-02-20T05:13:53.271Z,98519.66
2023-02-20T05:16:22.835Z,98513.75
2023-02-20T05:18:51.116Z,98523.53
2023-02-20T05:21:36.919Z,98525.44
2023-02-20T05:24:07.449Z,98527.50
2023-02-20T05:26:37.520Z,98534.13
2023-02-20T05:29:06.481Z,98530.75
2023-02-20T05:31:36.220Z,98536.16
2023-02-20T05:34:04.541Z,98540.75
2023-02-20T05:36:32.913Z,98546.31
2023-02-20T05:39:01.281Z,98544.59
2023-02-20T05:41:29.617Z,98550.88
2023-02-20T05:43:58.998Z,98550.88
2023-02-20T05:46:28.304Z,98546.66
2023-02-20T05:48:57.934Z,98545.81
2023-02-20T05:51:29.089Z,98555.44
2023-02-20T05:53:57.561Z,98544.97
2023-02-20T05:56:26.128Z,98549.44
2023-02-20T05:58:54.436Z,98549.44
2023-02-20T06:01:28.437Z,98552.09
2023-02-20T06:03:58.349Z,98546.91
2023-02-20T06:06:33.375Z,98556.66
2023-02-20T06:09:01.971Z,98550.50
2023-02-20T06:11:30.242Z,98555.78
2023-02-20T06:13:58.665Z,98560.03
2023-02-20T06:16:29.079Z,98561.69
2023-02-20T06:19:06.783Z,98564.22
2023-02-20T06:21:37.675Z,98564.22
2023-02-20T06:24:06.375Z,98557.72
2023-02-20T06:26:34.631Z,98559.53
2023-02-20T06:29:02.858Z,98563.00
2023-02-20T06:31:31.254Z,98565.09
2023-02-20T06:33:59.640Z,98565.78
2023-02-20T06:36:30.558Z,98563.13
2023-02-20T06:39:00.459Z,98567.63
2023-02-20T06:41:29.017Z,98572.78
2023-02-20T06:43:57.400Z,98583.38
2023-02-20T06:46:26.330Z,98577.22
2023-02-20T06:48:57.458Z,98593.97
2023-02-20T06:51:29.195Z,98591.31
2023-02-20T06:53:59.222Z,98586.03
2023-02-20T06:56:30.580Z,98593.00
2023-02-20T06:59:00.215Z,98585.06
2023-02-20T07:01:32.118Z,98592.03
2023-02-20T07:04:02.809Z,98590.22
2023-02-20T07:06:31.156Z,98597.19
2023-02-20T07:09:00.813Z,98595.28
2023-02-20T07:11:29.058Z,98597.81
2023-02-20T07:13:58.227Z,98602.16
2023-02-20T07:16:26.526Z,98605.53
2023-02-20T07:18:54.804Z,98608.06
2023-02-20T07:21:23.065Z,98604.44
2023-02-20T07:23:51.650Z,98591.06
2023-02-20T07:26:24.906Z,98585.88
2023-02-20T07:28:54.989Z,98582.19
2023-02-20T07:31:23.362Z,98582.88
2023-02-20T07:33:51.930Z,98584.34
2023-02-20T07:36:20.354Z,98566.75
2023-02-20T07:38:55.400Z,98571.78
2023-02-20T07:41:26.319Z,98562.91
2023-02-20T07:43:54.593Z,98569.03
2023-02-20T07:46:23.297Z,98575.19
2023-02-20T07:48:53.247Z,98577.50
2023-02-20T07:51:21.809Z,98584.34
2023-02-20T07:53:51.022Z,98586.06
2023-02-20T07:56:19.990Z,98576.16
2023-02-20T07:58:50.387Z,98573.25
2023-02-20T08:01:19.444Z,98567.59
2023-02-20T08:03:48.260Z,98545.41
2023-02-20T08:06:18.981Z,98542.38
2023-02-20T08:08:50.309Z,98541.19
2023-02-20T08:11:19.624Z,98530.47
2023-02-20T08:13:49.480Z,98527.44
2023-02-20T08:16:18.052Z,98526.22
2023-02-20T08:18:46.872Z,98532.56
2023-02-20T08:21:15.132Z,98533.34
2023-02-20T08:23:43.380Z,98547.06
2023-02-20T08:26:12.259Z,98550.97
2023-02-20T08:28:41.107Z,98541.00
2023-02-20T08:31:15.147Z,98548.31
2023-02-20T08:33:51.157Z,98540.53
2023-02-20T08:36:19.920Z,98546.16
2023-02-20T08:38:48.237Z,98544.00
2023-02-20T08:41:16.500Z,98536.47
2023-02-20T08:43:46.031Z,98537.44
2023-02-20T08:46:16.513Z,98535.50
2023-02-20T08:48:45.478Z,98527.53
2023-02-20T08:51:14.724Z,98514.81
2023-02-20T08:53:43.034Z,98507.59
2023-02-20T08:56:13.218Z,98515.28
2023-02-20T08:58:41.719Z,98526.63
2023-02-20T09:01:10.166Z,98517.69
2023-02-20T09:03:41.839Z,98508.59
2023-02-20T09:06:10.341Z,98502.84
2023-02-20T09:08:39.016Z,98513.91
2023-02-20T09:11:10.050Z,98519.22
2023-02-20T09:13:44.621Z,98525.38
2023-02-20T09:16:14.544Z,98512.78
2023-02-20T09:18:45.432Z,98503.72
2023-02-20T09:21:16.207Z,98492.13
2023-02-20T09:23:44.521Z,98491.72
2023-02-20T09:26:13.830Z,98496.63
2023-02-20T09:28:42.247Z,98492.16
2023-02-20T09:31:10.533Z,98495.69
2023-02-20T09:33:38.970Z,98491.25
2023-02-20T09:36:09.692Z,98479.25
2023-02-20T09:38:38.074Z,98476.63
2023-02-20T09:41:06.844Z,98471.31
2023-02-20T09:43:48.157Z,98471.50
2023-02-20T09:46:19.223Z,98461.13
2023-02-20T09:49:05.289Z,98453.53
2023-02-20T09:51:39.867Z,98452.78
2023-02-20T09:54:10.724Z,98442.38
2023-02-20T09:56:46.021Z,98441.16
2023-02-20T09:59:21.029Z,98445.81
2023-02-20T10:01:56.239Z,98437.53
2023-02-20T10:04:30.023Z,98436.28
2023-02-20T10:07:22.484Z,98438.78
2023-02-20T10:09:50.954Z,98442.19
2023-02-20T10:12:28.897Z,98436.31
2023-02-20T10:15:15.044Z,98442.88
2023-02-20T10:17:53.662Z,98437.63
2023-02-20T10:20:28.979Z,98428.59
2023-02-20T10:23:10.134Z,98420.66
2023-02-20T10:25:42.984Z,98423.72
2023-02-20T10:28:16.162Z,98418.63
2023-02-20T10:30:49.281Z,98406.81
2023-02-20T10:33:27.845Z,98415.72
2023-02-20T10:36:03.123Z,98413.66
2023-02-20T10:38:40.038Z,98407.19
2023-02-20T10:41:16.960Z,98405.22
2023-02-20T10:43:52.208Z,98395.91
2023-02-20T10:46:36.865Z,98386.22
2023-02-20T10:49:17.849Z,98378.25
2023-02-20T10:51:51.392Z,98384.13
2023-02-20T10:54:26.666Z,98384.25
2023-02-20T10:57:01.161Z,98382.56
2023-02-20T10:59:38.124Z,98377.53
2023-02-20T11:02:15.717Z,98377.19
2023-02-20T11:04:53.443Z,98358.91
2023-02-20T11:07:23.847Z,98363.09
2023-02-20T11:09:53.698Z,98359.88
2023-02-20T11:12:32.606Z,98353.00
2023-02-20T11:15:07.113Z,98348.75
2023-02-20T11:17:36.817Z,98334.75
2023-02-20T11:20:06.692Z,98326.81
2023-02-20T11:22:44.574Z,98319.84
2023-02-20T11:25:20.980Z,98320.56
2023-02-20T11:27:52.625Z,98321.66
2023-02-20T11:30:31.198Z,98315.69
2023-02-20T11:33:05.925Z,98302.66
2023-02-20T11:35:37.015Z,98303.72
2023-02-20T11:38:34.611Z,98292.91
2023-02-20T11:41:27.826Z,98292.97
2023-02-20T11:44:22.622Z,98288.09
2023-02-20T11:47:26.937Z,98278.94
2023-02-20T11:50:20.728Z,98282.56
2023-02-20T11:53:04.898Z,98278.75
2023-02-20T11:55:33.617Z,98280.03
2023-02-20T11:58:04.248Z,98271.78
2023-02-20T12:00:47.503Z,98261.69
2023-02-20T12:03:22.806Z,98260.09
2023-02-20T12:05:51.929Z,98257.03
2023-02-20T12:08:44.992Z,98263.25
2023-02-20T12:11:16.213Z,98260.75
2023-02-20T12:13:48.446Z,98251.47
2023-02-20T12:16:39.026Z,98246.22
2023-02-20T12:22:02.749Z,98250.41
2023-02-20T12:24:48.856Z,98245.13
2023-02-20T12:27:42.200Z,98246.03
2023-02-20T12:30:29.189Z,98229.28
2023-02-20T12:33:20.037Z,98233.34
2023-02-20T12:35:59.059Z,98228.13
2023-02-20T12:38:42.393Z,98220.00
2023-02-20T12:41:33.515Z,98219.16
2023-02-20T12:44:21.466Z,98218.69
2023-02-20T12:47:03.795Z,98213.69
2023-02-20T12:49:55.117Z,98206.28
2023-02-20T12:53:02.355Z,98201.00
2023-02-20T12:55:44.582Z,98198.75
2023-02-20T12:58:25.741Z,98188.34
2023-02-20T13:00:56.534Z,98185.75
2023-02-20T13:03:41.703Z,98177.94
2023-02-20T13:06:12.107Z,98175.72
2023-02-20T13:08:54.193Z,98174.63
2023-02-20T13:11:26.084Z,98169.81
2023-02-20T13:14:07.677Z,98167.88
2023-02-20T13:16:43.336Z,98168.59
2023-02-20T13:19:24.034Z,98158.59
2023-02-20T13:21:52.565Z,98163.66
2023-02-20T13:24:36.879Z,98147.44
2023-02-20T13:27:09.715Z,98143.66
2023-02-20T13:29:40.298Z,98144.97
2023-02-20T13:32:27.170Z,98138.69
2023-02-20T13:35:33.736Z,98142.75
2023-02-20T13:38:12.230Z,98132.94
2023-02-20T13:40:43.908Z,98132.94
2023-02-20T13:43:31.592Z,98130.69
2023-02-20T13:46:22.707Z,98135.34
2023-02-20T13:48:53.711Z,98127.38
2023-02-20T13:51:38.913Z,98120.97
2023-02-20T13:54:26.880Z,98120.25
2023-02-20T13:57:04.899Z,98108.94
2023-02-20T13:59:34.663Z,98110.03
2023-02-20T14:02:17.531Z,98100.97
2023-02-20T14:04:57.420Z,98105.31
2023-02-20T14:07:37.582Z,98099.97
2023-02-20T14:10:14.588Z,98099.31
2023-02-20T14:12:42.872Z,98096.00
2023-02-20T14:15:11.336Z,98099.66
2023-02-20T14:17:43.323Z,98096.25
2023-02-20T14:20:24.717Z,98088.59
2023-02-20T14:26:12.886Z,98086.94
2023-02-20T14:28:48.215Z,98088.88
2023-02-20T14:31:24.934Z,98097.66
2023-02-20T14:33:57.492Z,98095.53
2023-02-20T14:36:55.951Z,98088.75
2023-02-20T14:39:39.231Z,98088.81
2023-02-20T14:42:17.433Z,98080.03
2023-02-20T14:44:50.019Z,98077.91
2023-02-20T14:47:19.307Z,98075.16
2023-02-20T14:49:47.645Z,98064.16
2023-02-20T14:52:21.087Z,98065.25
2023-02-20T14:55:00.839Z,98071.50
2023-02-20T14:57:31.206Z,98061.50
2023-02-20T15:00:24.528Z,98066.75
2023-02-20T15:02:55.908Z,98067.66
2023-02-20T15:05:31.361Z,98062.34
2023-02-20T15:08:06.646Z,98061.75
2023-02-20T15:10:39.081Z,98054.41
2023-02-20T15:13:11.382Z,98057.31
2023-02-20T15:15:44.022Z,98056.53
2023-02-20T15:18:17.515Z,98050.88
2023-02-20T15:20:48.601Z,98048.25
2023-02-20T15:23:29.509Z,98050.81
2023-02-20T15:25:58.909Z,98042.44
2023-02-20T15:28:31.974Z,98044.00
2023-02-20T15:31:23.416Z,98037.69
2023-02-20T15:33:54.754Z,98038.22
2023-02-20T15:36:26.313Z,98034.16
2023-02-20T15:38:55.522Z,98038.19
2023-02-20T15:41:24.917Z,98032.34
2023-02-20T15:43:54.608Z,98030.56
2023-02-20T15:46:23.062Z,98031.28
2023-02-20T15:48:51.374Z,98026.44
2023-02-20T15:51:23.056Z,98024.28
2023-02-20T15:53:54.141Z,98020.47
2023-02-20T15:56:22.902Z,98022.81
2023-02-20T15:58:51.891Z,98019.81
2023-02-20T16:01:21.621Z,98013.31
2023-02-20T16:03:52.765Z,98007.00
2023-02-20T16:06:22.437Z,98001.31
2023-02-20T16:08:52.373Z,98001.84
2023-02-20T16:11:22.916Z,97989.16
2023-02-20T16:13:56.742Z,97994.03
2023-02-20T16:16:35.147Z,97992.97
2023-02-20T16:19:04.652Z,97990.81
2023-02-20T16:21:33.009Z,97995.84
2023-02-20T16:24:01.389Z,97997.38
2023-02-20T16:26:35.446Z,98000.72
2023-02-20T16:29:07.440Z,98006.56
2023-02-20T16:32:16.763Z,98007.72
2023-02-20T16:34:46.082Z,98011.88
2023-02-20T16:37:15.474Z,98018.56
2023-02-20T16:39:44.144Z,98015.72
2023-02-20T16:42:33.776Z,98017.53
2023-02-20T16:45:06.425Z,98026.22
2023-02-20T16:47:36.063Z,98018.69
2023-02-20T16:50:07.337Z,98028.19
2023-02-20T16:52:38.213Z,98019.19
2023-02-20T16:55:21.455Z,98021.78
2023-02-20T16:57:50.081Z,98026.78
2023-02-20T17:00:21.663Z,98018.59
2023-02-20T17:02:51.307Z,98017.28
2023-02-20T17:05:21.963Z,98020.59
2023-02-20T17:07:50.560Z,98020.22
2023-02-20T17:10:19.078Z,98013.72
2023-02-20T17:12:47.624Z,98013.34
2023-02-20T17:15:18.790Z,98015.66
2023-02-20T17:17:47.311Z,98013.47
2023-02-20T17:20:20.360Z,98008.13
2023-02-20T17:23:02.829Z,98006.09
2023-02-20T17:25:34.678Z,98012.06
2023-02-20T17:28:03.597Z,97998.53
2023-02-20T17:30:31.943Z,97996.34
2023-02-20T17:33:00.417Z,97981.81
2023-02-20T17:35:30.110Z,97974.47
2023-02-20T17:37:58.577Z,97977.59
2023-02-20T17:40:26.829Z,97980.75
2023-02-20T17:42:55.183Z,97981.19
2023-02-20T17:45:23.452Z,97980.81
2023-02-20T17:47:51.747Z,97982.66
2023-02-20T17:50:20.490Z,97990.09
2023-02-20T17:52:54.524Z,97986.09
2023-02-20T17:55:27.241Z,97985.41
2023-02-20T17:57:55.747Z,97978.91
2023-02-20T18:00:24.508Z,97984.69
2023-02-20T18:02:52.722Z,97985.00
2023-02-20T18:05:20.983Z,97987.13
2023-02-20T18:07:50.653Z,97974.44
2023-02-20T18:10:19.662Z,97974.59
2023-02-20T18:13:02.352Z,97969.56
2023-02-20T18:15:31.098Z,97975.22
2023-02-20T18:17:59.634Z,97967.53
2023-02-20T18:20:28.133Z,97966.03
2023-02-20T18:22:58.979Z,97971.66
2023-02-20T18:25:39.687Z,97960.66
2023-02-20T18:28:09.776Z,97963.94
2023-02-20T18:30:39.290Z,97963.09
2023-02-20T18:33:07.635Z,97969.72
2023-02-20T18:35:36.622Z,97965.53
2023-02-20T18:38:06.707Z,97958.84
2023-02-20T18:40:35.593Z,97954.69
2023-02-20T18:43:03.876Z,97952.31
2023-02-20T18:45:32.122Z,97963.28
2023-02-20T18:48:00.373Z,97952.94
2023-02-20T18:50:28.620Z,97962.88
2023-02-20T18:52:56.887Z,97961.53
2023-02-20T18:55:26.462Z,97963.50
2023-02-20T18:57:55.043Z,97968.09
2023-02-20T19:00:28.927Z,97962.13
2023-02-20T19:03:00.959Z,97975.69
2023-02-20T19:05:29.686Z,97966.88
2023-02-20T19:07:58.828Z,97970.69
2023-02-20T19:10:28.941Z,97965.50
2023-02-20T19:12:57.601Z,97966.66
2023-02-20T19:15:26.248Z,97963.31
2023-02-20T19:17:55.059Z,97958.44
2023-02-20T19:20:28.726Z,97965.72
2023-02-20T19:22:58.471Z,97966.88
2023-02-20T19:25:28.226Z,97961.00
2023-02-20T19:27:56.472Z,97963.97
2023-02-20T19:30:24.823Z,97960.78
2023-02-20T19:32:53.154Z,97960.38
2023-02-20T19:35:21.426Z,97952.56
2023-02-20T19:37:49.718Z,97965.16
2023-02-20T19:40:18.250Z,97960.28
2023-02-20T19:42:47.920Z,97963.28
2023-02-20T19:45:16.238Z,97963.56
2023-02-20T19:47:44.493Z,97969.34
2023-02-20T19:50:13.198Z,97960.66
2023-02-20T19:52:42.559Z,97964.47
2023-02-20T19:55:16.141Z,97956.78
2023-02-20T19:57:44.376Z,97962.41
2023-02-20T20:00:18.116Z,97956.53
2023-02-20T20:02:47.162Z,97958.63
2023-02-20T20:05:17.415Z,97969.41
2023-02-20T20:07:46.080Z,97970.53
2023-02-20T20:10:14.908Z,97964.69
2023-02-20T20:12:49.182Z,97966.66
2023-02-20T20:15:21.964Z,97973.22
2023-02-20T20:17:52.620Z,97974.50
2023-02-20T20:20:22.739Z,97975.81
2023-02-20T20:22:52.951Z,97985.06
2023-02-20T20:25:22.715Z,97983.50
2023-02-20T20:27:52.027Z,97980.47
2023-02-20T20:30:24.785Z,97980.75
2023-02-20T20:32:53.793Z,97981.03
2023-02-20T20:35:24.894Z,97982.28
2023-02-20T20:37:55.051Z,97985.19
2023-02-20T20:40:24.210Z,97977.53
2023-02-20T20:42:52.558Z,97975.00
2023-02-20T20:45:23.732Z,97979.50
2023-02-20T20:47:52.224Z,97977.94
2023-02-20T20:50:24.143Z,97971.13
2023-02-20T20:52:52.433Z,97978.38
2023-02-20T20:55:20.913Z,97983.84
2023-02-20T20:57:51.544Z,97988.47
2023-02-20T21:00:24.780Z,97981.75
2023-02-20T21:02:53.674Z,97982.88
2023-02-20T21:05:26.472Z,97981.38
2023-02-20T21:07:54.857Z,97980.66
2023-02-20T21:10:23.210Z,97979.97
2023-02-20T21:12:51.570Z,97992.53
2023-02-20T21:15:23.268Z,97981.38
2023-02-20T21:17:51.532Z,97982.34
2023-02-20T21:20:23.575Z,97989.88
2023-02-20T21:22:52.359Z,97981.41
2023-02-20T21:25:21.658Z,97979.03
2023-02-20T21:27:50.418Z,97991.72
2023-02-20T21:30:19.388Z,97983.47
2023-02-20T21:32:49.380Z,97989.06
2023-02-20T21:35:20.561Z,97993.13
2023-02-20T21:37:49.186Z,97995.50
2023-02-20T21:40:18.313Z,97987.00
2023-02-20T21:43:04.304Z,97986.56
2023-02-20T21:45:32.639Z,97987.97
2023-02-20T21:48:02.335Z,97991.88
2023-02-20T21:50:30.617Z,97985.16
2023-02-20T21:52:59.025Z,97989.19
2023-02-20T21:55:27.583Z,97989.47
2023-02-20T21:58:00.872Z,97989.75
2023-02-20T22:00:28.095Z,97991.97
2023-02-20T22:02:55.330Z,97992.22
2023-02-20T22:05:24.178Z,97989.03
2023-02-20T22:08:10.197Z,97989.44
2023-02-20T22:10:56.315Z,97991.63
2023-02-20T22:13:42.425Z,97995.66
2023-02-20T22:16:28.686Z,97981.28
2023-02-20T22:19:14.861Z,97987.69
2023-02-20T22:22:01.913Z,98000.38
2023-02-20T22:24:47.720Z,97990.19
2023-02-20T22:27:33.298Z,97986.94
2023-02-20T22:30:19.132Z,97983.88
2023-02-20T22:33:04.700Z,97982.59
2023-02-20T22:35:50.534Z,97983.84
2023-02-20T22:38:37.514Z,97986.75
2023-02-20T22:41:23.308Z,97988.94
2023-02-20T22:44:08.982Z,97991.19
2023-02-20T22:46:54.653Z,97992.41
2023-02-20T22:49:40.607Z,97999.19
2023-02-20T22:52:26.294Z,97998.75
2023-02-20T22:55:13.502Z,98000.97
2023-02-20T22:57:59.424Z,97998.84
2023-02-20T23:00:45.133Z,98000.09
2023-02-20T23:03:30.702Z,97995.31
2023-02-20T23:06:19.072Z,97998.34
2023-02-20T23:09:06.210Z,98004.03
2023-02-20T23:11:55.151Z,98005.34
2023-02-20T23:14:40.849Z,98004.06
2023-02-20T23:17:37.489Z,98005.31
2023-02-20T23:20:24.721Z,98011.09
2023-02-20T23:23:10.988Z,98008.72
2023-02-20T23:25:56.896Z,98011.75
2023-02-20T23:28:44.282Z,98011.16
2023-02-20T23:31:30.412Z,98012.22
2023-02-20T23:34:15.937Z,98016.91
2023-02-20T23:37:05.445Z,98015.38
2023-02-20T23:39:51.568Z,98008.53
2023-02-20T23:42:37.455Z,98014.91
2023-02-20T23:45:26.301Z,98012.63
2023-02-20T23:48:12.322Z,98010.00
2023-02-20T23:50:57.868Z,98009.31
2023-02-20T23:53:43.370Z,98007.72
2023-02-20T23:56:28.847Z,98010.63
2023-02-20T23:59:14.471Z,98010.75
